sensor_id;sensor_type;location;lat;lon;timestamp;P1;durP1;ratioP1;P2;durP2;ratioP2
15490;SDS011;7847;50.930;4.336;2023-03-12T00:01:18;0.50;;;0.50;;
15490;SDS011;7847;50.930;4.336;2023-03-12T00:03:44;0.50;;;0.50;;
15490;SDS011;7847;50.930;4.336;2023-03-12T00:06:10;0.50;;;0.50;;
15490;SDS011;7847;50.930;4.336;2023-03-12T00:08:36;0.47;;;0.47;;
15490;SDS011;7847;50.930;4.336;2023-03-12T00:11:09;0.50;;;0.50;;
15490;SDS011;7847;50.930;4.336;2023-03-12T00:13:35;0.50;;;0.50;;
15490;SDS011;7847;50.930;4.336;2023-03-12T00:16:02;0.50;;;0.50;;
15490;SDS011;7847;50.930;4.336;2023-03-12T00:18:29;0.43;;;0.43;;
15490;SDS011;7847;50.930;4.336;2023-03-12T00:20:55;0.50;;;0.50;;
15490;SDS011;7847;50.930;4.336;2023-03-12T00:23:21;0.50;;;0.50;;
15490;SDS011;7847;50.930;4.336;2023-03-12T00:25:47;0.50;;;0.50;;
15490;SDS011;7847;50.930;4.336;2023-03-12T00:28:13;0.50;;;0.50;;
15490;SDS011;7847;50.930;4.336;2023-03-12T00:30:39;0.50;;;0.50;;
15490;SDS011;7847;50.930;4.336;2023-03-12T00:33:06;0.47;;;0.47;;
15490;SDS011;7847;50.930;4.336;2023-03-12T00:35:32;0.50;;;0.50;;
15490;SDS011;7847;50.930;4.336;2023-03-12T00:37:58;0.50;;;0.50;;
15490;SDS011;7847;50.930;4.336;2023-03-12T00:40:24;0.50;;;0.50;;
15490;SDS011;7847;50.930;4.336;2023-03-12T00:42:50;0.50;;;0.50;;
15490;SDS011;7847;50.930;4.336;2023-03-12T00:45:16;0.47;;;0.47;;
15490;SDS011;7847;50.930;4.336;2023-03-12T00:47:42;0.40;;;0.40;;
15490;SDS011;7847;50.930;4.336;2023-03-12T00:50:08;0.40;;;0.40;;
15490;SDS011;7847;50.930;4.336;2023-03-12T00:52:34;0.50;;;0.50;;
15490;SDS011;7847;50.930;4.336;2023-03-12T00:55:00;0.47;;;0.47;;
15490;SDS011;7847;50.930;4.336;2023-03-12T00:57:26;0.50;;;0.50;;
15490;SDS011;7847;50.930;4.336;2023-03-12T00:59:52;0.50;;;0.50;;
15490;SDS011;7847;50.930;4.336;2023-03-12T01:02:18;0.40;;;0.40;;
15490;SDS011;7847;50.930;4.336;2023-03-12T01:04:44;0.47;;;0.47;;
15490;SDS011;7847;50.930;4.336;2023-03-12T01:07:10;0.50;;;0.50;;
15490;SDS011;7847;50.930;4.336;2023-03-12T01:09:36;0.50;;;0.50;;
15490;SDS011;7847;50.930;4.336;2023-03-12T01:12:03;0.40;;;0.40;;
15490;SDS011;7847;50.930;4.336;2023-03-12T01:14:29;0.50;;;0.50;;
15490;SDS011;7847;50.930;4.336;2023-03-12T01:16:55;0.60;;;0.60;;
15490;SDS011;7847;50.930;4.336;2023-03-12T01:19:21;0.50;;;0.50;;
15490;SDS011;7847;50.930;4.336;2023-03-12T01:21:47;0.50;;;0.50;;
15490;SDS011;7847;50.930;4.336;2023-03-12T01:24:13;0.40;;;0.40;;
15490;SDS011;7847;50.930;4.336;2023-03-12T01:26:39;0.50;;;0.50;;
15490;SDS011;7847;50.930;4.336;2023-03-12T01:29:05;0.40;;;0.40;;
15490;SDS011;7847;50.930;4.336;2023-03-12T01:31:31;0.60;;;0.60;;
15490;SDS011;7847;50.930;4.336;2023-03-12T01:33:57;0.50;;;0.50;;
15490;SDS011;7847;50.930;4.336;2023-03-12T01:36:24;0.50;;;0.50;;
15490;SDS011;7847;50.930;4.336;2023-03-12T01:38:51;0.40;;;0.40;;
15490;SDS011;7847;50.930;4.336;2023-03-12T01:41:18;0.50;;;0.50;;
15490;SDS011;7847;50.930;4.336;2023-03-12T01:43:45;0.50;;;0.50;;
15490;SDS011;7847;50.930;4.336;2023-03-12T01:51:57;0.50;;;0.50;;
15490;SDS011;7847;50.930;4.336;2023-03-12T01:54:40;0.50;;;0.50;;
15490;SDS011;7847;50.930;4.336;2023-03-12T01:57:08;0.40;;;0.40;;
15490;SDS011;7847;50.930;4.336;2023-03-12T01:59:40;0.40;;;0.40;;
15490;SDS011;7847;50.930;4.336;2023-03-12T02:02:08;0.50;;;0.50;;
15490;SDS011;7847;50.930;4.336;2023-03-12T02:04:34;0.50;;;0.50;;
15490;SDS011;7847;50.930;4.336;2023-03-12T02:09:33;0.50;;;0.50;;
15490;SDS011;7847;50.930;4.336;2023-03-12T02:12:00;0.50;;;0.50;;
15490;SDS011;7847;50.930;4.336;2023-03-12T02:14:27;0.60;;;0.60;;
15490;SDS011;7847;50.930;4.336;2023-03-12T02:16:53;0.50;;;0.50;;
15490;SDS011;7847;50.930;4.336;2023-03-12T02:21:55;0.50;;;0.50;;
15490;SDS011;7847;50.930;4.336;2023-03-12T02:24:25;0.53;;;0.53;;
15490;SDS011;7847;50.930;4.336;2023-03-12T02:26:52;0.50;;;0.50;;
15490;SDS011;7847;50.930;4.336;2023-03-12T02:29:18;0.50;;;0.50;;
15490;SDS011;7847;50.930;4.336;2023-03-12T02:31:47;0.50;;;0.50;;
15490;SDS011;7847;50.930;4.336;2023-03-12T02:34:15;0.57;;;0.57;;
15490;SDS011;7847;50.930;4.336;2023-03-12T02:36:41;0.50;;;0.50;;
15490;SDS011;7847;50.930;4.336;2023-03-12T02:39:09;0.50;;;0.50;;
15490;SDS011;7847;50.930;4.336;2023-03-12T02:41:36;0.50;;;0.50;;
15490;SDS011;7847;50.930;4.336;2023-03-12T02:44:05;0.50;;;0.50;;
15490;SDS011;7847;50.930;4.336;2023-03-12T02:46:42;0.50;;;0.50;;
15490;SDS011;7847;50.930;4.336;2023-03-12T02:49:09;0.50;;;0.50;;
15490;SDS011;7847;50.930;4.336;2023-03-12T02:51:38;0.57;;;0.57;;
15490;SDS011;7847;50.930;4.336;2023-03-12T02:54:05;0.50;;;0.50;;
15490;SDS011;7847;50.930;4.336;2023-03-12T02:56:31;0.50;;;0.50;;
15490;SDS011;7847;50.930;4.336;2023-03-12T02:58:57;0.50;;;0.50;;
15490;SDS011;7847;50.930;4.336;2023-03-12T03:01:23;0.50;;;0.50;;
15490;SDS011;7847;50.930;4.336;2023-03-12T03:03:50;0.60;;;0.60;;
15490;SDS011;7847;50.930;4.336;2023-03-12T03:06:16;0.50;;;0.50;;
15490;SDS011;7847;50.930;4.336;2023-03-12T03:08:42;0.50;;;0.50;;
15490;SDS011;7847;50.930;4.336;2023-03-12T03:11:08;0.50;;;0.50;;
15490;SDS011;7847;50.930;4.336;2023-03-12T03:13:34;0.50;;;0.50;;
15490;SDS011;7847;50.930;4.336;2023-03-12T03:16:00;0.50;;;0.50;;
15490;SDS011;7847;50.930;4.336;2023-03-12T03:18:28;0.50;;;0.50;;
15490;SDS011;7847;50.930;4.336;2023-03-12T03:20:58;0.50;;;0.50;;
15490;SDS011;7847;50.930;4.336;2023-03-12T03:23:25;0.50;;;0.50;;
15490;SDS011;7847;50.930;4.336;2023-03-12T03:25:51;0.50;;;0.50;;
15490;SDS011;7847;50.930;4.336;2023-03-12T03:28:18;0.60;;;0.60;;
15490;SDS011;7847;50.930;4.336;2023-03-12T03:30:44;0.50;;;0.50;;
15490;SDS011;7847;50.930;4.336;2023-03-12T03:33:10;0.50;;;0.50;;
15490;SDS011;7847;50.930;4.336;2023-03-12T03:35:36;0.50;;;0.50;;
15490;SDS011;7847;50.930;4.336;2023-03-12T03:38:02;0.50;;;0.50;;
15490;SDS011;7847;50.930;4.336;2023-03-12T03:40:28;0.50;;;0.50;;
15490;SDS011;7847;50.930;4.336;2023-03-12T03:42:55;0.50;;;0.50;;
15490;SDS011;7847;50.930;4.336;2023-03-12T03:45:21;0.50;;;0.50;;
15490;SDS011;7847;50.930;4.336;2023-03-12T03:47:47;0.50;;;0.50;;
15490;SDS011;7847;50.930;4.336;2023-03-12T03:50:13;0.50;;;0.50;;
15490;SDS011;7847;50.930;4.336;2023-03-12T03:52:39;0.50;;;0.50;;
15490;SDS011;7847;50.930;4.336;2023-03-12T03:55:05;0.50;;;0.50;;
15490;SDS011;7847;50.930;4.336;2023-03-12T03:57:31;0.40;;;0.40;;
15490;SDS011;7847;50.930;4.336;2023-03-12T03:59:57;0.50;;;0.50;;
15490;SDS011;7847;50.930;4.336;2023-03-12T04:02:24;0.50;;;0.50;;
15490;SDS011;7847;50.930;4.336;2023-03-12T04:04:50;0.50;;;0.50;;
15490;SDS011;7847;50.930;4.336;2023-03-12T04:07:17;0.50;;;0.50;;
15490;SDS011;7847;50.930;4.336;2023-03-12T04:09:43;0.50;;;0.50;;
15490;SDS011;7847;50.930;4.336;2023-03-12T04:12:09;0.50;;;0.50;;
15490;SDS011;7847;50.930;4.336;2023-03-12T04:14:37;0.40;;;0.40;;
15490;SDS011;7847;50.930;4.336;2023-03-12T04:17:04;0.50;;;0.50;;
15490;SDS011;7847;50.930;4.336;2023-03-12T04:19:30;0.50;;;0.50;;
15490;SDS011;7847;50.930;4.336;2023-03-12T04:21:56;0.50;;;0.50;;
15490;SDS011;7847;50.930;4.336;2023-03-12T04:24:22;0.50;;;0.50;;
15490;SDS011;7847;50.930;4.336;2023-03-12T04:26:48;0.50;;;0.50;;
15490;SDS011;7847;50.930;4.336;2023-03-12T04:29:15;0.50;;;0.50;;
15490;SDS011;7847;50.930;4.336;2023-03-12T04:31:42;0.50;;;0.50;;
15490;SDS011;7847;50.930;4.336;2023-03-12T04:34:08;0.50;;;0.50;;
15490;SDS011;7847;50.930;4.336;2023-03-12T04:36:34;0.50;;;0.50;;
15490;SDS011;7847;50.930;4.336;2023-03-12T04:39:00;0.50;;;0.50;;
15490;SDS011;7847;50.930;4.336;2023-03-12T04:41:26;0.50;;;0.50;;
15490;SDS011;7847;50.930;4.336;2023-03-12T04:43:52;0.50;;;0.50;;
15490;SDS011;7847;50.930;4.336;2023-03-12T04:46:18;0.53;;;0.53;;
15490;SDS011;7847;50.930;4.336;2023-03-12T04:48:44;0.50;;;0.50;;
15490;SDS011;7847;50.930;4.336;2023-03-12T04:51:11;0.60;;;0.60;;
15490;SDS011;7847;50.930;4.336;2023-03-12T04:53:37;0.50;;;0.50;;
15490;SDS011;7847;50.930;4.336;2023-03-12T04:56:04;0.50;;;0.50;;
15490;SDS011;7847;50.930;4.336;2023-03-12T04:58:30;0.50;;;0.50;;
15490;SDS011;7847;50.930;4.336;2023-03-12T05:00:56;0.50;;;0.50;;
15490;SDS011;7847;50.930;4.336;2023-03-12T05:03:22;0.60;;;0.60;;
15490;SDS011;7847;50.930;4.336;2023-03-12T05:05:48;0.60;;;0.60;;
15490;SDS011;7847;50.930;4.336;2023-03-12T05:08:15;0.50;;;0.50;;
15490;SDS011;7847;50.930;4.336;2023-03-12T05:10:41;0.50;;;0.50;;
15490;SDS011;7847;50.930;4.336;2023-03-12T05:13:16;0.50;;;0.50;;
15490;SDS011;7847;50.930;4.336;2023-03-12T05:15:42;0.50;;;0.50;;
15490;SDS011;7847;50.930;4.336;2023-03-12T05:18:08;0.50;;;0.50;;
15490;SDS011;7847;50.930;4.336;2023-03-12T05:20:34;0.50;;;0.50;;
15490;SDS011;7847;50.930;4.336;2023-03-12T05:23:00;0.50;;;0.50;;
15490;SDS011;7847;50.930;4.336;2023-03-12T05:25:37;0.50;;;0.50;;
15490;SDS011;7847;50.930;4.336;2023-03-12T05:28:04;0.50;;;0.50;;
15490;SDS011;7847;50.930;4.336;2023-03-12T05:30:30;0.60;;;0.60;;
15490;SDS011;7847;50.930;4.336;2023-03-12T05:32:56;0.57;;;0.57;;
15490;SDS011;7847;50.930;4.336;2023-03-12T05:35:22;0.50;;;0.50;;
15490;SDS011;7847;50.930;4.336;2023-03-12T05:37:48;0.50;;;0.50;;
15490;SDS011;7847;50.930;4.336;2023-03-12T05:40:14;0.50;;;0.50;;
15490;SDS011;7847;50.930;4.336;2023-03-12T05:42:40;0.50;;;0.50;;
15490;SDS011;7847;50.930;4.336;2023-03-12T05:45:06;0.50;;;0.50;;
15490;SDS011;7847;50.930;4.336;2023-03-12T05:47:32;0.50;;;0.50;;
15490;SDS011;7847;50.930;4.336;2023-03-12T05:49:58;0.53;;;0.53;;
15490;SDS011;7847;50.930;4.336;2023-03-12T05:52:24;0.60;;;0.60;;
15490;SDS011;7847;50.930;4.336;2023-03-12T05:54:51;0.50;;;0.50;;
15490;SDS011;7847;50.930;4.336;2023-03-12T05:57:17;0.50;;;0.50;;
15490;SDS011;7847;50.930;4.336;2023-03-12T05:59:46;0.53;;;0.53;;
15490;SDS011;7847;50.930;4.336;2023-03-12T06:02:12;0.50;;;0.50;;
15490;SDS011;7847;50.930;4.336;2023-03-12T06:04:38;0.50;;;0.50;;
15490;SDS011;7847;50.930;4.336;2023-03-12T06:07:04;0.50;;;0.50;;
15490;SDS011;7847;50.930;4.336;2023-03-12T06:09:30;0.50;;;0.50;;
15490;SDS011;7847;50.930;4.336;2023-03-12T06:11:56;0.50;;;0.50;;
15490;SDS011;7847;50.930;4.336;2023-03-12T06:14:22;0.50;;;0.50;;
15490;SDS011;7847;50.930;4.336;2023-03-12T06:16:48;0.50;;;0.50;;
15490;SDS011;7847;50.930;4.336;2023-03-12T06:19:14;0.50;;;0.50;;
15490;SDS011;7847;50.930;4.336;2023-03-12T06:21:41;0.50;;;0.50;;
15490;SDS011;7847;50.930;4.336;2023-03-12T06:24:07;0.50;;;0.50;;
15490;SDS011;7847;50.930;4.336;2023-03-12T06:26:33;0.50;;;0.50;;
15490;SDS011;7847;50.930;4.336;2023-03-12T06:28:59;0.50;;;0.50;;
15490;SDS011;7847;50.930;4.336;2023-03-12T06:31:25;0.50;;;0.50;;
15490;SDS011;7847;50.930;4.336;2023-03-12T06:33:51;0.50;;;0.50;;
15490;SDS011;7847;50.930;4.336;2023-03-12T06:36:17;0.50;;;0.50;;
15490;SDS011;7847;50.930;4.336;2023-03-12T06:38:43;0.50;;;0.50;;
15490;SDS011;7847;50.930;4.336;2023-03-12T06:41:14;0.50;;;0.50;;
15490;SDS011;7847;50.930;4.336;2023-03-12T06:43:41;0.50;;;0.50;;
15490;SDS011;7847;50.930;4.336;2023-03-12T06:46:07;0.43;;;0.43;;
15490;SDS011;7847;50.930;4.336;2023-03-12T06:48:34;0.47;;;0.47;;
15490;SDS011;7847;50.930;4.336;2023-03-12T06:51:04;0.50;;;0.50;;
15490;SDS011;7847;50.930;4.336;2023-03-12T06:53:30;0.50;;;0.50;;
15490;SDS011;7847;50.930;4.336;2023-03-12T06:55:56;0.50;;;0.50;;
15490;SDS011;7847;50.930;4.336;2023-03-12T06:58:22;0.50;;;0.50;;
15490;SDS011;7847;50.930;4.336;2023-03-12T07:00:48;0.50;;;0.50;;
15490;SDS011;7847;50.930;4.336;2023-03-12T07:03:14;0.50;;;0.50;;
15490;SDS011;7847;50.930;4.336;2023-03-12T07:05:44;0.50;;;0.50;;
15490;SDS011;7847;50.930;4.336;2023-03-12T07:08:10;0.50;;;0.50;;
15490;SDS011;7847;50.930;4.336;2023-03-12T07:10:36;0.43;;;0.43;;
15490;SDS011;7847;50.930;4.336;2023-03-12T07:13:02;0.40;;;0.40;;
15490;SDS011;7847;50.930;4.336;2023-03-12T07:15:28;0.50;;;0.50;;
15490;SDS011;7847;50.930;4.336;2023-03-12T07:17:58;0.50;;;0.50;;
15490;SDS011;7847;50.930;4.336;2023-03-12T07:20:25;0.40;;;0.40;;
15490;SDS011;7847;50.930;4.336;2023-03-12T07:22:51;0.50;;;0.50;;
15490;SDS011;7847;50.930;4.336;2023-03-12T07:25:17;0.50;;;0.50;;
15490;SDS011;7847;50.930;4.336;2023-03-12T07:27:43;0.40;;;0.40;;
15490;SDS011;7847;50.930;4.336;2023-03-12T07:30:09;0.40;;;0.40;;
15490;SDS011;7847;50.930;4.336;2023-03-12T07:32:35;0.40;;;0.40;;
15490;SDS011;7847;50.930;4.336;2023-03-12T07:35:02;0.50;;;0.50;;
15490;SDS011;7847;50.930;4.336;2023-03-12T07:37:28;0.47;;;0.47;;
15490;SDS011;7847;50.930;4.336;2023-03-12T07:39:54;0.40;;;0.40;;
15490;SDS011;7847;50.930;4.336;2023-03-12T07:42:21;0.40;;;0.40;;
15490;SDS011;7847;50.930;4.336;2023-03-12T07:44:47;0.40;;;0.40;;
15490;SDS011;7847;50.930;4.336;2023-03-12T07:47:13;0.40;;;0.40;;
15490;SDS011;7847;50.930;4.336;2023-03-12T07:49:39;0.43;;;0.43;;
15490;SDS011;7847;50.930;4.336;2023-03-12T07:52:06;0.40;;;0.40;;
15490;SDS011;7847;50.930;4.336;2023-03-12T07:54:34;0.40;;;0.40;;
15490;SDS011;7847;50.930;4.336;2023-03-12T07:57:00;0.40;;;0.40;;
15490;SDS011;7847;50.930;4.336;2023-03-12T07:59:26;0.43;;;0.43;;
15490;SDS011;7847;50.930;4.336;2023-03-12T08:01:52;0.50;;;0.50;;
15490;SDS011;7847;50.930;4.336;2023-03-12T08:04:18;0.43;;;0.43;;
15490;SDS011;7847;50.930;4.336;2023-03-12T08:06:45;0.40;;;0.40;;
15490;SDS011;7847;50.930;4.336;2023-03-12T08:09:11;0.40;;;0.40;;
15490;SDS011;7847;50.930;4.336;2023-03-12T08:11:37;0.40;;;0.40;;
15490;SDS011;7847;50.930;4.336;2023-03-12T08:14:03;0.50;;;0.50;;
15490;SDS011;7847;50.930;4.336;2023-03-12T08:16:30;0.40;;;0.40;;
15490;SDS011;7847;50.930;4.336;2023-03-12T08:18:56;0.40;;;0.40;;
15490;SDS011;7847;50.930;4.336;2023-03-12T08:21:22;0.40;;;0.40;;
15490;SDS011;7847;50.930;4.336;2023-03-12T08:23:48;0.40;;;0.40;;
15490;SDS011;7847;50.930;4.336;2023-03-12T08:26:14;0.50;;;0.50;;
15490;SDS011;7847;50.930;4.336;2023-03-12T08:28:40;0.40;;;0.40;;
15490;SDS011;7847;50.930;4.336;2023-03-12T08:31:07;0.40;;;0.40;;
15490;SDS011;7847;50.930;4.336;2023-03-12T08:33:36;0.40;;;0.40;;
15490;SDS011;7847;50.930;4.336;2023-03-12T08:36:05;0.40;;;0.40;;
15490;SDS011;7847;50.930;4.336;2023-03-12T08:38:31;0.50;;;0.50;;
15490;SDS011;7847;50.930;4.336;2023-03-12T08:40:57;0.50;;;0.50;;
15490;SDS011;7847;50.930;4.336;2023-03-12T08:43:24;0.40;;;0.40;;
15490;SDS011;7847;50.930;4.336;2023-03-12T08:45:57;0.40;;;0.40;;
15490;SDS011;7847;50.930;4.336;2023-03-12T08:48:23;0.40;;;0.40;;
15490;SDS011;7847;50.930;4.336;2023-03-12T08:50:50;0.40;;;0.40;;
15490;SDS011;7847;50.930;4.336;2023-03-12T08:53:16;0.40;;;0.40;;
15490;SDS011;7847;50.930;4.336;2023-03-12T08:55:42;0.40;;;0.40;;
15490;SDS011;7847;50.930;4.336;2023-03-12T08:58:09;0.30;;;0.30;;
15490;SDS011;7847;50.930;4.336;2023-03-12T09:00:35;0.40;;;0.40;;
15490;SDS011;7847;50.930;4.336;2023-03-12T09:03:01;0.40;;;0.40;;
15490;SDS011;7847;50.930;4.336;2023-03-12T09:05:28;0.40;;;0.40;;
15490;SDS011;7847;50.930;4.336;2023-03-12T09:07:54;0.30;;;0.30;;
15490;SDS011;7847;50.930;4.336;2023-03-12T09:10:20;0.40;;;0.40;;
15490;SDS011;7847;50.930;4.336;2023-03-12T09:12:46;0.33;;;0.33;;
15490;SDS011;7847;50.930;4.336;2023-03-12T09:15:12;0.40;;;0.40;;
15490;SDS011;7847;50.930;4.336;2023-03-12T09:17:38;0.30;;;0.30;;
15490;SDS011;7847;50.930;4.336;2023-03-12T09:20:05;0.30;;;0.30;;
15490;SDS011;7847;50.930;4.336;2023-03-12T09:22:32;0.40;;;0.40;;
15490;SDS011;7847;50.930;4.336;2023-03-12T09:25:01;0.40;;;0.40;;
15490;SDS011;7847;50.930;4.336;2023-03-12T09:27:27;0.30;;;0.30;;
15490;SDS011;7847;50.930;4.336;2023-03-12T09:29:53;0.30;;;0.30;;
15490;SDS011;7847;50.930;4.336;2023-03-12T09:32:19;0.30;;;0.30;;
15490;SDS011;7847;50.930;4.336;2023-03-12T09:34:45;0.40;;;0.40;;
15490;SDS011;7847;50.930;4.336;2023-03-12T09:37:12;0.30;;;0.30;;
15490;SDS011;7847;50.930;4.336;2023-03-12T09:39:38;0.30;;;0.30;;
15490;SDS011;7847;50.930;4.336;2023-03-12T09:42:04;0.30;;;0.30;;
15490;SDS011;7847;50.930;4.336;2023-03-12T09:44:35;0.40;;;0.40;;
15490;SDS011;7847;50.930;4.336;2023-03-12T09:47:06;0.40;;;0.40;;
15490;SDS011;7847;50.930;4.336;2023-03-12T09:49:44;0.40;;;0.40;;
15490;SDS011;7847;50.930;4.336;2023-03-12T09:52:23;0.40;;;0.40;;
15490;SDS011;7847;50.930;4.336;2023-03-12T09:57:43;0.30;;;0.30;;
15490;SDS011;7847;50.930;4.336;2023-03-12T10:00:19;0.30;;;0.30;;
15490;SDS011;7847;50.930;4.336;2023-03-12T10:08:19;0.30;;;0.30;;
15490;SDS011;7847;50.930;4.336;2023-03-12T10:16:00;0.30;;;0.30;;
15490;SDS011;7847;50.930;4.336;2023-03-12T10:26:30;0.30;;;0.30;;
15490;SDS011;7847;50.930;4.336;2023-03-12T10:29:19;0.30;;;0.30;;
15490;SDS011;7847;50.930;4.336;2023-03-12T10:37:27;0.30;;;0.30;;
15490;SDS011;7847;50.930;4.336;2023-03-12T10:39:54;0.30;;;0.30;;
15490;SDS011;7847;50.930;4.336;2023-03-12T10:42:22;0.30;;;0.30;;
15490;SDS011;7847;50.930;4.336;2023-03-12T10:45:25;0.30;;;0.30;;
15490;SDS011;7847;50.930;4.336;2023-03-12T10:47:42;0.30;;;0.30;;
15490;SDS011;7847;50.930;4.336;2023-03-12T10:50:16;0.30;;;0.30;;
15490;SDS011;7847;50.930;4.336;2023-03-12T10:52:43;0.30;;;0.30;;
15490;SDS011;7847;50.930;4.336;2023-03-12T10:55:19;0.30;;;0.30;;
15490;SDS011;7847;50.930;4.336;2023-03-12T10:57:46;0.30;;;0.30;;
15490;SDS011;7847;50.930;4.336;2023-03-12T11:00:17;0.30;;;0.30;;
15490;SDS011;7847;50.930;4.336;2023-03-12T11:02:43;0.30;;;0.30;;
15490;SDS011;7847;50.930;4.336;2023-03-12T11:07:54;0.20;;;0.20;;
15490;SDS011;7847;50.930;4.336;2023-03-12T11:10:22;0.30;;;0.30;;
15490;SDS011;7847;50.930;4.336;2023-03-12T11:13:00;0.30;;;0.30;;
15490;SDS011;7847;50.930;4.336;2023-03-12T11:15:28;0.30;;;0.30;;
15490;SDS011;7847;50.930;4.336;2023-03-12T11:18:29;0.30;;;0.30;;
15490;SDS011;7847;50.930;4.336;2023-03-12T11:20:50;0.30;;;0.30;;
15490;SDS011;7847;50.930;4.336;2023-03-12T11:23:19;0.30;;;0.30;;
15490;SDS011;7847;50.930;4.336;2023-03-12T11:25:50;0.30;;;0.30;;
15490;SDS011;7847;50.930;4.336;2023-03-12T11:28:19;0.30;;;0.30;;
15490;SDS011;7847;50.930;4.336;2023-03-12T11:30:45;0.30;;;0.30;;
15490;SDS011;7847;50.930;4.336;2023-03-12T11:33:14;0.30;;;0.30;;
15490;SDS011;7847;50.930;4.336;2023-03-12T11:43:48;0.30;;;0.30;;
15490;SDS011;7847;50.930;4.336;2023-03-12T11:46:31;0.30;;;0.30;;
15490;SDS011;7847;50.930;4.336;2023-03-12T11:51:32;0.30;;;0.30;;
15490;SDS011;7847;50.930;4.336;2023-03-12T11:56:46;0.30;;;0.30;;
15490;SDS011;7847;50.930;4.336;2023-03-12T12:09:52;0.30;;;0.30;;
15490;SDS011;7847;50.930;4.336;2023-03-12T12:12:42;0.30;;;0.30;;
15490;SDS011;7847;50.930;4.336;2023-03-12T12:20:13;0.30;;;0.30;;
15490;SDS011;7847;50.930;4.336;2023-03-12T12:27:50;0.30;;;0.30;;
15490;SDS011;7847;50.930;4.336;2023-03-12T12:35:34;0.30;;;0.30;;
15490;SDS011;7847;50.930;4.336;2023-03-12T12:45:49;0.20;;;0.20;;
15490;SDS011;7847;50.930;4.336;2023-03-12T12:48:17;0.30;;;0.30;;
15490;SDS011;7847;50.930;4.336;2023-03-12T12:50:44;0.30;;;0.30;;
15490;SDS011;7847;50.930;4.336;2023-03-12T12:53:25;0.30;;;0.30;;
15490;SDS011;7847;50.930;4.336;2023-03-12T13:01:17;0.30;;;0.30;;
15490;SDS011;7847;50.930;4.336;2023-03-12T13:03:43;0.20;;;0.20;;
15490;SDS011;7847;50.930;4.336;2023-03-12T13:06:10;0.30;;;0.30;;
15490;SDS011;7847;50.930;4.336;2023-03-12T13:13:37;0.30;;;0.30;;
15490;SDS011;7847;50.930;4.336;2023-03-12T13:18:44;0.30;;;0.30;;
15490;SDS011;7847;50.930;4.336;2023-03-12T13:26:37;0.20;;;0.20;;
15490;SDS011;7847;50.930;4.336;2023-03-12T13:29:34;0.27;;;0.27;;
15490;SDS011;7847;50.930;4.336;2023-03-12T13:32:01;0.30;;;0.30;;
15490;SDS011;7847;50.930;4.336;2023-03-12T13:34:43;0.30;;;0.30;;
15490;SDS011;7847;50.930;4.336;2023-03-12T13:37:18;0.30;;;0.30;;
15490;SDS011;7847;50.930;4.336;2023-03-12T13:39:44;0.30;;;0.30;;
15490;SDS011;7847;50.930;4.336;2023-03-12T13:44:49;0.30;;;0.30;;
15490;SDS011;7847;50.930;4.336;2023-03-12T13:49:42;0.30;;;0.30;;
15490;SDS011;7847;50.930;4.336;2023-03-12T13:54:39;0.30;;;0.30;;
15490;SDS011;7847;50.930;4.336;2023-03-12T13:57:11;0.30;;;0.30;;
15490;SDS011;7847;50.930;4.336;2023-03-12T13:59:41;0.30;;;0.30;;
15490;SDS011;7847;50.930;4.336;2023-03-12T14:02:13;0.30;;;0.30;;
15490;SDS011;7847;50.930;4.336;2023-03-12T14:04:41;0.30;;;0.30;;
15490;SDS011;7847;50.930;4.336;2023-03-12T14:12:19;0.30;;;0.30;;
15490;SDS011;7847;50.930;4.336;2023-03-12T14:15:05;0.30;;;0.30;;
15490;SDS011;7847;50.930;4.336;2023-03-12T14:17:33;0.30;;;0.30;;
15490;SDS011;7847;50.930;4.336;2023-03-12T14:20:03;0.30;;;0.30;;
15490;SDS011;7847;50.930;4.336;2023-03-12T14:22:32;0.30;;;0.30;;
15490;SDS011;7847;50.930;4.336;2023-03-12T14:25:03;0.30;;;0.30;;
15490;SDS011;7847;50.930;4.336;2023-03-12T14:27:31;0.30;;;0.30;;
15490;SDS011;7847;50.930;4.336;2023-03-12T14:32:37;0.30;;;0.30;;
15490;SDS011;7847;50.930;4.336;2023-03-12T14:37:39;0.30;;;0.30;;
15490;SDS011;7847;50.930;4.336;2023-03-12T14:42:42;0.30;;;0.30;;
15490;SDS011;7847;50.930;4.336;2023-03-12T14:47:44;0.30;;;0.30;;
15490;SDS011;7847;50.930;4.336;2023-03-12T14:52:49;0.27;;;0.27;;
15490;SDS011;7847;50.930;4.336;2023-03-12T14:55:16;0.30;;;0.30;;
15490;SDS011;7847;50.930;4.336;2023-03-12T14:57:44;0.20;;;0.20;;
15490;SDS011;7847;50.930;4.336;2023-03-12T15:00:24;0.30;;;0.30;;
15490;SDS011;7847;50.930;4.336;2023-03-12T15:02:51;0.30;;;0.30;;
15490;SDS011;7847;50.930;4.336;2023-03-12T15:05:18;0.30;;;0.30;;
15490;SDS011;7847;50.930;4.336;2023-03-12T15:07:44;0.20;;;0.20;;
15490;SDS011;7847;50.930;4.336;2023-03-12T15:10:19;0.30;;;0.30;;
15490;SDS011;7847;50.930;4.336;2023-03-12T15:12:47;0.20;;;0.20;;
15490;SDS011;7847;50.930;4.336;2023-03-12T15:15:35;0.30;;;0.30;;
15490;SDS011;7847;50.930;4.336;2023-03-12T15:18:01;0.30;;;0.30;;
15490;SDS011;7847;50.930;4.336;2023-03-12T15:20:27;0.20;;;0.20;;
15490;SDS011;7847;50.930;4.336;2023-03-12T15:22:54;0.20;;;0.20;;
15490;SDS011;7847;50.930;4.336;2023-03-12T15:25:24;0.30;;;0.30;;
15490;SDS011;7847;50.930;4.336;2023-03-12T15:28:07;0.30;;;0.30;;
15490;SDS011;7847;50.930;4.336;2023-03-12T15:31:03;0.30;;;0.30;;
15490;SDS011;7847;50.930;4.336;2023-03-12T15:33:29;0.30;;;0.30;;
15490;SDS011;7847;50.930;4.336;2023-03-12T15:35:59;0.30;;;0.30;;
15490;SDS011;7847;50.930;4.336;2023-03-12T15:38:26;0.23;;;0.23;;
15490;SDS011;7847;50.930;4.336;2023-03-12T15:40:53;0.30;;;0.30;;
15490;SDS011;7847;50.930;4.336;2023-03-12T15:43:24;0.30;;;0.30;;
15490;SDS011;7847;50.930;4.336;2023-03-12T15:46:03;0.30;;;0.30;;
15490;SDS011;7847;50.930;4.336;2023-03-12T15:48:31;0.30;;;0.30;;
15490;SDS011;7847;50.930;4.336;2023-03-12T15:50:58;0.30;;;0.30;;
15490;SDS011;7847;50.930;4.336;2023-03-12T15:53:26;0.20;;;0.20;;
15490;SDS011;7847;50.930;4.336;2023-03-12T15:56:06;0.20;;;0.20;;
15490;SDS011;7847;50.930;4.336;2023-03-12T15:58:45;0.30;;;0.30;;
15490;SDS011;7847;50.930;4.336;2023-03-12T16:01:12;0.30;;;0.30;;
15490;SDS011;7847;50.930;4.336;2023-03-12T16:03:39;0.20;;;0.20;;
15490;SDS011;7847;50.930;4.336;2023-03-12T16:06:19;0.30;;;0.30;;
15490;SDS011;7847;50.930;4.336;2023-03-12T16:11:17;0.30;;;0.30;;
15490;SDS011;7847;50.930;4.336;2023-03-12T16:13:43;0.30;;;0.30;;
15490;SDS011;7847;50.930;4.336;2023-03-12T16:16:10;0.30;;;0.30;;
15490;SDS011;7847;50.930;4.336;2023-03-12T16:18:37;0.20;;;0.20;;
15490;SDS011;7847;50.930;4.336;2023-03-12T16:21:03;0.30;;;0.30;;
15490;SDS011;7847;50.930;4.336;2023-03-12T16:23:29;0.30;;;0.30;;
15490;SDS011;7847;50.930;4.336;2023-03-12T16:25:55;0.30;;;0.30;;
15490;SDS011;7847;50.930;4.336;2023-03-12T16:28:22;0.30;;;0.30;;
15490;SDS011;7847;50.930;4.336;2023-03-12T16:30:48;0.30;;;0.30;;
15490;SDS011;7847;50.930;4.336;2023-03-12T16:33:16;0.30;;;0.30;;
15490;SDS011;7847;50.930;4.336;2023-03-12T16:35:42;0.27;;;0.27;;
15490;SDS011;7847;50.930;4.336;2023-03-12T16:38:08;0.30;;;0.30;;
15490;SDS011;7847;50.930;4.336;2023-03-12T16:40:36;0.30;;;0.30;;
15490;SDS011;7847;50.930;4.336;2023-03-12T16:43:03;0.30;;;0.30;;
15490;SDS011;7847;50.930;4.336;2023-03-12T16:45:33;0.30;;;0.30;;
15490;SDS011;7847;50.930;4.336;2023-03-12T16:48:00;0.30;;;0.30;;
15490;SDS011;7847;50.930;4.336;2023-03-12T16:50:27;0.30;;;0.30;;
15490;SDS011;7847;50.930;4.336;2023-03-12T16:52:53;0.30;;;0.30;;
15490;SDS011;7847;50.930;4.336;2023-03-12T16:55:20;0.30;;;0.30;;
15490;SDS011;7847;50.930;4.336;2023-03-12T16:57:48;0.30;;;0.30;;
15490;SDS011;7847;50.930;4.336;2023-03-12T17:00:15;0.30;;;0.30;;
15490;SDS011;7847;50.930;4.336;2023-03-12T17:02:43;0.30;;;0.30;;
15490;SDS011;7847;50.930;4.336;2023-03-12T17:05:09;0.30;;;0.30;;
15490;SDS011;7847;50.930;4.336;2023-03-12T17:07:36;0.30;;;0.30;;
15490;SDS011;7847;50.930;4.336;2023-03-12T17:10:02;0.40;;;0.40;;
15490;SDS011;7847;50.930;4.336;2023-03-12T17:14:56;0.30;;;0.30;;
15490;SDS011;7847;50.930;4.336;2023-03-12T17:17:22;0.30;;;0.30;;
15490;SDS011;7847;50.930;4.336;2023-03-12T17:19:48;0.30;;;0.30;;
15490;SDS011;7847;50.930;4.336;2023-03-12T17:22:16;0.30;;;0.30;;